createdAt,value
2019-01-30T00:00:43.537Z,6.20
2019-01-30T00:03:11.881Z,5.87
2019-01-30T00:05:40.386Z,6.03
2019-01-30T00:08:08.674Z,6.43
2019-01-30T00:10:36.929Z,5.97
2019-01-30T00:13:05.533Z,5.97
2019-01-30T00:15:33.774Z,5.50
2019-01-30T00:18:02.063Z,5.93
2019-01-30T00:20:30.377Z,6.37
2019-01-30T00:22:58.656Z,5.70
2019-01-30T00:25:26.939Z,5.93
2019-01-30T00:27:55.263Z,5.70
2019-01-30T00:30:26.119Z,5.80
2019-01-30T00:32:54.416Z,6.00
2019-01-30T00:35:22.691Z,5.83
2019-01-30T00:37:50.987Z,5.50
2019-01-30T00:40:21.541Z,6.27
2019-01-30T00:42:50.052Z,6.53
2019-01-30T00:45:22.361Z,5.70
2019-01-30T00:47:50.982Z,6.30
2019-01-30T00:50:23.542Z,5.67
2019-01-30T00:52:52.053Z,6.00
2019-01-30T00:55:20.676Z,5.70
2019-01-30T00:57:49.270Z,5.47
2019-01-30T01:00:23.640Z,5.67
2019-01-30T01:02:51.966Z,5.63
2019-01-30T01:05:20.490Z,5.50
2019-01-30T01:07:48.852Z,5.63
2019-01-30T01:10:18.538Z,4.80
2019-01-30T01:12:49.417Z,6.00
2019-01-30T01:15:17.994Z,5.37
2019-01-30T01:17:46.721Z,6.03
2019-01-30T01:20:22.435Z,5.50
2019-01-30T01:22:50.770Z,5.53
2019-01-30T01:25:19.022Z,5.60
2019-01-30T01:27:47.301Z,6.13
2019-01-30T01:30:25.276Z,5.90
2019-01-30T01:32:51.819Z,6.47
2019-01-30T01:35:20.133Z,6.20
2019-01-30T01:37:48.981Z,6.03
2019-01-30T01:40:17.214Z,6.20
2019-01-30T01:42:45.525Z,5.73
2019-01-30T01:45:18.723Z,6.40
2019-01-30T01:47:47.047Z,5.80
2019-01-30T01:50:17.019Z,6.23
2019-01-30T01:52:45.267Z,6.50
2019-01-30T01:55:13.536Z,6.23
2019-01-30T01:57:41.784Z,6.50
2019-01-30T02:00:15.063Z,6.00
2019-01-30T02:02:43.303Z,5.80
2019-01-30T02:05:14.212Z,6.17
2019-01-30T02:07:42.450Z,5.90
2019-01-30T02:10:13.661Z,6.30
2019-01-30T02:12:42.332Z,6.37
2019-01-30T02:15:14.001Z,5.13
2019-01-30T02:17:42.881Z,5.67
2019-01-30T02:20:15.981Z,5.93
2019-01-30T02:22:45.302Z,5.80
2019-01-30T02:25:14.711Z,5.33
2019-01-30T02:27:42.994Z,5.87
2019-01-30T02:30:25.892Z,6.20
2019-01-30T02:32:54.472Z,6.13
2019-01-30T02:35:22.998Z,5.73
2019-01-30T02:37:51.637Z,6.17
2019-01-30T02:40:21.131Z,6.13
2019-01-30T02:42:49.391Z,5.57
2019-01-30T02:45:20.987Z,5.97
2019-01-30T02:47:49.251Z,5.80
2019-01-30T02:50:19.457Z,5.77
2019-01-30T02:52:47.770Z,5.40
2019-01-30T02:55:18.036Z,6.10
2019-01-30T02:57:46.541Z,5.00
2019-01-30T03:00:18.061Z,5.50
2019-01-30T03:02:46.330Z,5.90
2019-01-30T03:05:14.612Z,6.10
2019-01-30T03:07:42.880Z,5.83
2019-01-30T03:10:16.286Z,5.80
2019-01-30T03:12:44.546Z,5.77
2019-01-30T03:15:14.256Z,6.07
2019-01-30T03:17:42.512Z,5.53
2019-01-30T03:20:14.370Z,6.27
2019-01-30T03:22:42.663Z,5.60
2019-01-30T03:25:13.556Z,5.93
2019-01-30T03:27:41.818Z,6.33
2019-01-30T03:30:15.945Z,5.80
2019-01-30T03:32:44.235Z,5.73
2019-01-30T03:35:12.897Z,5.77
2019-01-30T03:37:41.128Z,5.97
2019-01-30T03:40:12.739Z,6.17
2019-01-30T03:42:41.062Z,6.20
2019-01-30T03:45:11.593Z,5.53
2019-01-30T03:47:40.140Z,5.37
2019-01-30T03:50:10.958Z,5.57
2019-01-30T03:52:39.205Z,6.57
2019-01-30T03:55:10.275Z,6.23
2019-01-30T03:57:38.525Z,6.33
2019-01-30T04:00:21.649Z,5.53
2019-01-30T04:02:49.961Z,6.33
2019-01-30T04:05:18.230Z,6.50
2019-01-30T04:07:46.604Z,6.13
2019-01-30T04:10:44.898Z,6.43
2019-01-30T04:13:13.135Z,5.77
2019-01-30T04:15:41.454Z,5.90
2019-01-30T04:18:09.819Z,6.13
2019-01-30T04:20:38.419Z,6.10
2019-01-30T04:23:07.004Z,6.50
2019-01-30T04:25:35.315Z,6.23
2019-01-30T04:28:03.568Z,5.93
2019-01-30T04:30:31.863Z,5.90
2019-01-30T04:33:00.118Z,6.43
2019-01-30T04:35:28.382Z,6.40
2019-01-30T04:37:56.974Z,6.60
2019-01-30T04:40:25.635Z,6.93
2019-01-30T04:42:53.917Z,6.60
2019-01-30T04:45:24.854Z,6.70
2019-01-30T04:47:53.443Z,6.67
2019-01-30T04:50:21.823Z,6.73
2019-01-30T04:52:50.326Z,6.37
2019-01-30T04:55:18.592Z,6.17
2019-01-30T04:57:46.839Z,6.47
2019-01-30T05:00:18.103Z,5.73
2019-01-30T05:02:46.348Z,6.93
2019-01-30T05:05:14.643Z,6.90
2019-01-30T05:07:42.894Z,6.73
2019-01-30T05:10:12.499Z,6.23
2019-01-30T05:12:40.743Z,6.73
2019-01-30T05:15:20.145Z,6.97
2019-01-30T05:17:48.468Z,7.43
2019-01-30T05:20:21.099Z,6.93
2019-01-30T05:22:49.379Z,6.83
2019-01-30T05:25:18.057Z,6.90
2019-01-30T05:27:46.783Z,7.00
2019-01-30T05:30:18.393Z,7.20
2019-01-30T05:32:46.651Z,7.43
2019-01-30T05:35:14.920Z,7.10
2019-01-30T05:37:43.165Z,6.77
2019-01-30T05:40:17.240Z,7.30
2019-01-30T05:42:45.505Z,6.90
2019-01-30T05:45:16.183Z,6.97
2019-01-30T05:47:44.441Z,8.03
2019-01-30T05:50:13.569Z,8.10
2019-01-30T05:52:41.887Z,6.87
2019-01-30T05:55:12.214Z,6.70
2019-01-30T05:57:40.480Z,7.33
2019-01-30T06:00:12.017Z,7.50
2019-01-30T06:02:40.649Z,7.43
2019-01-30T06:05:09.302Z,7.20
2019-01-30T06:07:37.584Z,7.27
2019-01-30T06:10:08.247Z,7.13
2019-01-30T06:12:36.866Z,7.60
2019-01-30T06:15:08.558Z,7.37
2019-01-30T06:17:36.808Z,7.33
2019-01-30T06:20:08.715Z,7.30
2019-01-30T06:22:37.281Z,7.50
2019-01-30T06:25:07.867Z,7.33
2019-01-30T06:27:36.177Z,7.80
2019-01-30T06:30:07.592Z,7.83
2019-01-30T06:32:36.244Z,7.43
2019-01-30T06:35:05.214Z,8.10
2019-01-30T06:37:33.632Z,8.30
2019-01-30T06:40:01.972Z,8.00
2019-01-30T06:42:30.227Z,7.53
2019-01-30T06:44:58.507Z,8.40
2019-01-30T06:47:27.089Z,8.60
2019-01-30T06:49:55.882Z,8.33
2019-01-30T06:52:24.294Z,8.97
2019-01-30T06:54:52.870Z,8.67
2019-01-30T06:57:21.143Z,8.87
2019-01-30T06:59:49.399Z,8.70
2019-01-30T07:02:19.519Z,8.50
2019-01-30T07:04:47.763Z,9.17
2019-01-30T07:07:16.041Z,10.37
2019-01-30T07:09:44.305Z,9.87
2019-01-30T07:12:12.587Z,10.13
2019-01-30T07:14:41.208Z,10.33
2019-01-30T07:17:09.496Z,9.50
2019-01-30T07:19:43.978Z,13.23
2019-01-30T07:22:12.278Z,10.77
2019-01-30T07:24:40.530Z,10.07
2019-01-30T07:27:08.944Z,10.07
2019-01-30T07:29:37.514Z,9.63
2019-01-30T07:32:05.793Z,11.03
2019-01-30T07:34:34.206Z,10.63
2019-01-30T07:37:02.867Z,11.17
2019-01-30T07:39:31.136Z,10.23
2019-01-30T07:41:59.704Z,10.43
2019-01-30T07:44:27.978Z,10.80
2019-01-30T07:46:56.597Z,11.10
2019-01-30T07:49:24.861Z,10.53
2019-01-30T07:51:53.535Z,10.57
2019-01-30T07:54:22.130Z,10.70
2019-01-30T07:56:50.727Z,16.57
2019-01-30T07:59:19.049Z,11.20
2019-01-30T08:01:47.475Z,12.13
2019-01-30T08:04:15.731Z,12.50
2019-01-30T08:06:44.030Z,11.17
2019-01-30T08:09:12.343Z,11.33
2019-01-30T08:11:40.609Z,10.57
2019-01-30T08:14:08.885Z,12.07
2019-01-30T08:16:37.306Z,11.53
2019-01-30T08:19:05.563Z,12.50
2019-01-30T08:21:34.163Z,11.07
2019-01-30T08:24:02.923Z,11.30
2019-01-30T08:26:31.671Z,11.13
2019-01-30T08:29:00.267Z,13.07
2019-01-30T08:31:29.027Z,13.37
2019-01-30T08:33:57.330Z,12.33
2019-01-30T08:36:25.638Z,11.63
2019-01-30T08:38:53.890Z,11.73
2019-01-30T08:41:22.163Z,11.40
2019-01-30T08:43:50.411Z,11.57
2019-01-30T08:46:18.690Z,11.70
2019-01-30T08:48:46.948Z,12.20
2019-01-30T08:51:15.308Z,12.73
2019-01-30T08:53:43.688Z,13.20
2019-01-30T08:56:11.986Z,12.13
2019-01-30T08:58:40.288Z,12.63
2019-01-30T09:01:08.663Z,12.87
2019-01-30T09:03:37.033Z,12.77
2019-01-30T09:06:05.295Z,12.53
2019-01-30T09:08:33.596Z,13.13
2019-01-30T09:11:01.863Z,12.50
2019-01-30T09:13:30.159Z,12.33
2019-01-30T09:15:58.534Z,12.70
2019-01-30T09:18:26.868Z,12.77
2019-01-30T09:20:55.163Z,12.40
2019-01-30T09:23:23.770Z,12.60
2019-01-30T09:25:52.025Z,13.17
2019-01-30T09:28:20.729Z,12.47
2019-01-30T09:30:48.983Z,12.20
2019-01-30T09:33:25.688Z,11.53
2019-01-30T09:35:47.317Z,12.27
2019-01-30T09:38:15.964Z,12.67
2019-01-30T09:40:44.257Z,10.83
2019-01-30T09:43:12.612Z,12.53
2019-01-30T09:45:40.899Z,13.53
2019-01-30T09:48:09.473Z,13.07
2019-01-30T09:50:37.789Z,12.30
2019-01-30T09:53:06.171Z,12.10
2019-01-30T09:55:34.488Z,13.53
2019-01-30T09:58:02.794Z,12.90
2019-01-30T10:00:33.289Z,12.47
2019-01-30T10:03:01.564Z,12.40
2019-01-30T10:05:29.841Z,11.90
2019-01-30T10:07:58.116Z,10.97
2019-01-30T10:10:29.626Z,11.73
2019-01-30T10:12:58.197Z,10.67
2019-01-30T10:15:29.201Z,12.37
2019-01-30T10:17:57.547Z,11.77
2019-01-30T10:20:27.805Z,11.17
2019-01-30T10:22:56.089Z,11.10
2019-01-30T10:25:24.362Z,11.87
2019-01-30T10:27:52.722Z,11.07
2019-01-30T10:30:33.304Z,11.30
2019-01-30T10:33:01.887Z,11.63
2019-01-30T10:35:30.504Z,11.00
2019-01-30T10:37:59.227Z,10.50
2019-01-30T10:40:27.483Z,11.43
2019-01-30T10:42:57.416Z,11.47
2019-01-30T10:45:25.970Z,10.60
2019-01-30T10:47:54.247Z,11.67
2019-01-30T10:50:25.453Z,10.33
2019-01-30T10:52:54.137Z,11.37
2019-01-30T10:55:24.597Z,10.73
2019-01-30T10:57:54.828Z,11.17
2019-01-30T11:00:31.711Z,19.63
2019-01-30T11:02:59.993Z,10.33
2019-01-30T11:05:28.255Z,11.27
2019-01-30T11:07:57.007Z,9.93
2019-01-30T11:10:25.523Z,9.73
2019-01-30T11:12:54.183Z,10.47
2019-01-30T11:15:27.839Z,10.57
2019-01-30T11:17:56.432Z,10.60
2019-01-30T11:20:24.680Z,9.80
2019-01-30T11:22:53.737Z,10.80
2019-01-30T11:25:34.409Z,10.90
2019-01-30T11:28:02.690Z,10.03
2019-01-30T11:30:30.946Z,10.27
2019-01-30T11:32:59.519Z,9.77
2019-01-30T11:35:27.777Z,10.50
2019-01-30T11:37:56.029Z,9.80
2019-01-30T11:40:25.936Z,10.40
2019-01-30T11:42:54.589Z,9.83
2019-01-30T11:45:37.143Z,10.00
2019-01-30T11:48:05.947Z,9.80
2019-01-30T11:50:34.565Z,9.90
2019-01-30T11:53:03.174Z,9.20
2019-01-30T11:55:31.828Z,9.37
2019-01-30T11:58:00.121Z,9.43
2019-01-30T12:00:34.762Z,9.10
2019-01-30T12:03:03.133Z,8.47
2019-01-30T12:05:31.692Z,8.13
2019-01-30T12:08:00.377Z,8.13
2019-01-30T12:10:28.808Z,17.87
2019-01-30T12:12:57.470Z,10.07
2019-01-30T12:15:27.145Z,10.53
2019-01-30T12:17:55.689Z,8.10
2019-01-30T12:20:23.937Z,7.27
2019-01-30T12:22:52.224Z,7.40
2019-01-30T12:25:21.996Z,6.80
2019-01-30T12:27:50.982Z,6.13
2019-01-30T12:30:27.121Z,5.80
2019-01-30T12:32:55.417Z,5.10
2019-01-30T12:35:24.108Z,4.23
2019-01-30T12:37:52.389Z,3.90
2019-01-30T12:40:21.760Z,3.30
2019-01-30T12:42:50.072Z,3.50
2019-01-30T12:45:30.213Z,3.57
2019-01-30T12:47:58.568Z,3.50
2019-01-30T12:50:27.114Z,3.70
2019-01-30T12:52:55.468Z,3.13
2019-01-30T12:55:24.143Z,2.73
2019-01-30T12:57:52.515Z,2.87
2019-01-30T13:00:23.679Z,2.90
2019-01-30T13:02:52.361Z,2.93
2019-01-30T13:05:21.401Z,3.23
2019-01-30T13:07:49.671Z,3.17
2019-01-30T13:10:17.928Z,3.00
2019-01-30T13:12:46.272Z,2.70
2019-01-30T13:15:19.354Z,2.60
2019-01-30T13:17:47.647Z,3.03
2019-01-30T13:20:17.717Z,2.67
2019-01-30T13:22:46.009Z,2.50
2019-01-30T13:25:16.386Z,2.30
2019-01-30T13:27:44.728Z,2.20
2019-01-30T13:30:19.222Z,2.00
2019-01-30T13:32:47.566Z,1.83
2019-01-30T13:35:15.803Z,1.87
2019-01-30T13:37:44.158Z,2.20
2019-01-30T13:40:15.609Z,1.97
2019-01-30T13:42:44.218Z,2.50
2019-01-30T13:45:13.223Z,1.90
2019-01-30T13:47:41.576Z,1.80
2019-01-30T13:50:15.706Z,2.00
2019-01-30T13:52:44.421Z,2.03
2019-01-30T13:55:12.889Z,2.10
2019-01-30T13:57:41.248Z,1.87
2019-01-30T14:00:30.832Z,2.00
2019-01-30T14:03:02.029Z,1.93
2019-01-30T14:05:31.109Z,2.30
2019-01-30T14:07:59.433Z,2.03
2019-01-30T14:10:28.128Z,2.40
2019-01-30T14:12:56.446Z,1.97
2019-01-30T14:15:30.217Z,2.33
2019-01-30T14:17:58.496Z,2.10
2019-01-30T14:20:26.749Z,1.73
2019-01-30T14:22:55.369Z,2.10
2019-01-30T14:25:23.623Z,2.03
2019-01-30T14:27:51.893Z,2.47
2019-01-30T14:30:28.228Z,2.30
2019-01-30T14:32:56.844Z,2.27
2019-01-30T14:35:26.239Z,1.80
2019-01-30T14:37:54.530Z,2.50
2019-01-30T14:40:22.872Z,2.83
2019-01-30T14:42:51.171Z,2.77
2019-01-30T14:45:20.282Z,3.00
2019-01-30T14:47:52.450Z,3.20
2019-01-30T14:50:25.280Z,3.53
2019-01-30T14:52:53.564Z,3.80
2019-01-30T14:55:21.961Z,3.80
2019-01-30T14:57:50.838Z,3.40
2019-01-30T15:00:21.799Z,3.80
2019-01-30T15:02:50.186Z,3.83
2019-01-30T15:05:22.430Z,3.67
2019-01-30T15:07:49.579Z,3.63
2019-01-30T15:10:19.672Z,4.40
2019-01-30T15:12:47.927Z,3.90
2019-01-30T15:15:18.397Z,3.53
2019-01-30T15:17:46.713Z,4.10
2019-01-30T15:20:17.547Z,4.10
2019-01-30T15:22:45.831Z,3.97
2019-01-30T15:25:16.231Z,3.80
2019-01-30T15:27:44.841Z,3.93
2019-01-30T15:30:16.432Z,4.30
2019-01-30T15:32:44.968Z,4.37
2019-01-30T15:35:13.274Z,3.80
2019-01-30T15:37:41.831Z,4.00
2019-01-30T15:40:18.886Z,4.60
2019-01-30T15:42:49.384Z,4.03
2019-01-30T15:45:21.225Z,9.70
2019-01-30T15:47:49.489Z,5.30
2019-01-30T15:50:26.735Z,3.90
2019-01-30T15:52:55.613Z,4.40
2019-01-30T15:55:24.236Z,4.37
2019-01-30T15:57:55.238Z,4.47
2019-01-30T16:00:32.433Z,4.30
2019-01-30T16:03:01.253Z,4.17
2019-01-30T16:05:29.543Z,4.47
2019-01-30T16:07:57.791Z,4.50
2019-01-30T16:10:26.621Z,4.83
2019-01-30T16:12:54.879Z,4.70
2019-01-30T16:15:26.542Z,4.53
2019-01-30T16:17:54.779Z,4.70
2019-01-30T16:20:23.072Z,4.70
2019-01-30T16:22:51.314Z,4.60
2019-01-30T16:25:19.590Z,4.10
2019-01-30T16:27:48.187Z,3.83
2019-01-30T16:30:21.654Z,4.10
2019-01-30T16:32:49.969Z,3.93
2019-01-30T16:35:21.441Z,3.67
2019-01-30T16:37:50.007Z,4.10
2019-01-30T16:40:18.418Z,3.57
2019-01-30T16:42:46.701Z,3.90
2019-01-30T16:45:23.730Z,3.30
2019-01-30T16:47:52.061Z,3.30
2019-01-30T16:50:20.309Z,3.63
2019-01-30T16:52:48.541Z,3.50
2019-01-30T16:55:18.751Z,3.60
2019-01-30T16:57:47.288Z,3.20
2019-01-30T17:00:21.419Z,3.47
2019-01-30T17:02:49.680Z,3.00
2019-01-30T17:05:17.984Z,3.93
2019-01-30T17:07:46.226Z,3.40
2019-01-30T17:10:18.517Z,3.43
2019-01-30T17:12:47.372Z,3.60
2019-01-30T17:15:18.130Z,3.70
2019-01-30T17:17:46.539Z,3.37
2019-01-30T17:20:20.665Z,2.73
2019-01-30T17:22:48.931Z,3.20
2019-01-30T17:25:17.235Z,3.20
2019-01-30T17:27:45.854Z,3.00
2019-01-30T17:30:17.345Z,3.40
2019-01-30T17:32:45.645Z,3.40
2019-01-30T17:35:13.931Z,2.90
2019-01-30T17:37:42.198Z,3.40
2019-01-30T17:40:14.099Z,2.93
2019-01-30T17:42:43.262Z,3.07
2019-01-30T17:45:11.590Z,3.20
2019-01-30T17:47:39.867Z,3.10
2019-01-30T17:50:16.408Z,3.50
2019-01-30T17:52:44.768Z,3.33
2019-01-30T17:55:13.013Z,3.63
2019-01-30T17:57:41.320Z,3.50
2019-01-30T18:00:23.667Z,4.40
2019-01-30T18:02:51.990Z,3.67
2019-01-30T18:05:22.964Z,4.07
2019-01-30T18:07:51.284Z,4.43
2019-01-30T18:10:19.646Z,3.80
2019-01-30T18:12:47.898Z,3.80
2019-01-30T18:15:16.463Z,4.03
2019-01-30T18:17:44.713Z,3.77
2019-01-30T18:20:19.184Z,4.07
2019-01-30T18:22:47.491Z,4.00
2019-01-30T18:25:17.196Z,4.30
2019-01-30T18:27:45.687Z,3.97
2019-01-30T18:30:22.430Z,4.70
2019-01-30T18:32:50.985Z,4.40
2019-01-30T18:35:19.269Z,4.67
2019-01-30T18:37:47.563Z,5.07
2019-01-30T18:40:18.631Z,5.37
2019-01-30T18:42:47.589Z,5.03
2019-01-30T18:45:24.179Z,4.63
2019-01-30T18:47:52.737Z,5.27
2019-01-30T18:50:23.072Z,5.63
2019-01-30T18:52:51.350Z,5.50
2019-01-30T18:55:19.902Z,5.53
2019-01-30T18:57:48.798Z,5.07
2019-01-30T19:00:35.397Z,4.73
2019-01-30T19:03:05.754Z,4.60
2019-01-30T19:05:34.270Z,4.87
2019-01-30T19:08:02.738Z,8.23
2019-01-30T19:10:31.057Z,10.37
2019-01-30T19:13:00.654Z,4.27
2019-01-30T19:15:30.141Z,4.40
2019-01-30T19:17:58.505Z,3.80
2019-01-30T19:20:32.476Z,4.10
2019-01-30T19:23:01.052Z,3.93
2019-01-30T19:25:29.447Z,3.47
2019-01-30T19:27:57.770Z,3.37
2019-01-30T19:30:27.872Z,3.70
2019-01-30T19:32:56.124Z,3.37
2019-01-30T19:35:24.426Z,3.73
2019-01-30T19:37:53.061Z,3.17
2019-01-30T19:40:21.421Z,3.53
2019-01-30T19:42:49.698Z,7.70
2019-01-30T19:45:21.171Z,7.30
2019-01-30T19:47:49.745Z,3.97
2019-01-30T19:50:23.180Z,3.40
2019-01-30T19:52:51.739Z,2.83
2019-01-30T19:55:20.078Z,2.80
2019-01-30T19:57:48.309Z,3.17
2019-01-30T20:00:31.083Z,3.20
2019-01-30T20:03:00.626Z,3.20
2019-01-30T20:05:29.303Z,2.87
2019-01-30T20:07:58.379Z,2.90
2019-01-30T20:10:29.836Z,3.27
2019-01-30T20:12:58.199Z,3.27
2019-01-30T20:15:26.793Z,3.47
2019-01-30T20:17:55.096Z,2.83
2019-01-30T20:20:24.271Z,3.50
2019-01-30T20:22:52.740Z,3.03
2019-01-30T20:25:33.165Z,2.87
2019-01-30T20:28:01.514Z,3.13
2019-01-30T20:30:30.076Z,2.83
2019-01-30T20:32:59.197Z,2.83
2019-01-30T20:35:27.442Z,2.57
2019-01-30T20:37:56.049Z,2.50
2019-01-30T20:40:26.588Z,2.67
2019-01-30T20:42:54.872Z,2.50
2019-01-30T20:45:33.625Z,2.40
2019-01-30T20:47:56.911Z,2.73
2019-01-30T20:50:27.185Z,2.10
2019-01-30T20:52:57.409Z,2.43
2019-01-30T20:55:25.771Z,2.73
2019-01-30T20:57:54.152Z,2.33
2019-01-30T21:00:25.110Z,2.57
2019-01-30T21:02:53.416Z,2.47
2019-01-30T21:05:21.679Z,2.80
2019-01-30T21:07:50.091Z,2.50
2019-01-30T21:10:21.427Z,2.50
2019-01-30T21:12:49.673Z,2.00
2019-01-30T21:15:18.162Z,2.30
2019-01-30T21:17:46.696Z,2.63
2019-01-30T21:20:16.790Z,6.67
2019-01-30T21:22:45.494Z,9.17
2019-01-30T21:25:21.584Z,4.57
2019-01-30T21:27:49.926Z,3.37
2019-01-30T21:30:29.658Z,2.27
2019-01-30T21:32:57.935Z,2.30
2019-01-30T21:35:26.178Z,2.50
2019-01-30T21:37:54.489Z,2.17
2019-01-30T21:40:22.797Z,2.17
2019-01-30T21:42:51.179Z,2.40
2019-01-30T21:45:21.266Z,2.50
2019-01-30T21:47:49.578Z,2.50
2019-01-30T21:50:17.817Z,2.40
2019-01-30T21:52:46.135Z,2.80
2019-01-30T21:55:19.948Z,2.60
2019-01-30T21:57:48.588Z,2.60
2019-01-30T22:00:21.309Z,2.37
2019-01-30T22:02:49.600Z,2.67
2019-01-30T22:05:17.861Z,2.40
2019-01-30T22:07:46.143Z,2.53
2019-01-30T22:10:17.016Z,2.33
2019-01-30T22:12:45.378Z,3.13
2019-01-30T22:15:17.754Z,2.50
2019-01-30T22:17:46.039Z,2.40
2019-01-30T22:20:16.688Z,3.00
2019-01-30T22:22:45.653Z,2.70
2019-01-30T22:25:20.797Z,6.13
2019-01-30T22:27:50.293Z,9.93
2019-01-30T22:30:24.341Z,4.50
2019-01-30T22:32:52.658Z,2.80
2019-01-30T22:35:20.939Z,2.77
2019-01-30T22:37:49.742Z,2.67
2019-01-30T22:40:18.088Z,2.83
2019-01-30T22:42:46.750Z,2.80
2019-01-30T22:45:17.342Z,2.40
2019-01-30T22:47:45.950Z,2.70
2019-01-30T22:50:16.591Z,2.93
2019-01-30T22:52:44.900Z,2.67
2019-01-30T22:55:15.406Z,2.87
2019-01-30T22:57:44.009Z,3.10
2019-01-30T23:00:24.769Z,3.10
2019-01-30T23:02:53.409Z,3.30
2019-01-30T23:05:40.200Z,2.70
2019-01-30T23:08:09.981Z,3.00
2019-01-30T23:10:53.243Z,3.10
2019-01-30T23:13:25.127Z,3.50
2019-01-30T23:16:28.839Z,4.03
2019-01-30T23:19:00.625Z,4.10
2019-01-30T23:21:43.865Z,3.80
2019-01-30T23:24:35.031Z,4.40
2019-01-30T23:27:06.666Z,3.83
2019-01-30T23:29:44.114Z,3.60
2019-01-30T23:32:18.282Z,3.80
2019-01-30T23:35:04.792Z,4.70
2019-01-30T23:37:38.991Z,4.17
2019-01-30T23:40:16.623Z,4.60
2019-01-30T23:43:05.941Z,4.27
2019-01-30T23:45:43.102Z,4.00
2019-01-30T23:48:32.787Z,4.30
2019-01-30T23:51:19.138Z,4.10
2019-01-30T23:53:51.000Z,4.33
2019-01-30T23:56:34.897Z,4.53
2019-01-30T23:59:32.395Z,4.40
